sensor_id;sensor_type;location;lat;lon;timestamp;P1;durP1;ratioP1;P2;durP2;ratioP2
80694;SDS011;70059;42.702;23.312;2024-03-06T00:01:53;28.92;;;16.88;;
80694;SDS011;70059;42.702;23.312;2024-03-06T00:04:19;26.92;;;16.60;;
80694;SDS011;70059;42.702;23.312;2024-03-06T00:06:45;26.77;;;15.80;;
80694;SDS011;70059;42.702;23.312;2024-03-06T00:09:11;28.02;;;17.08;;
80694;SDS011;70059;42.702;23.312;2024-03-06T00:11:37;33.13;;;18.35;;
80694;SDS011;70059;42.702;23.312;2024-03-06T00:14:04;29.15;;;16.85;;
80694;SDS011;70059;42.702;23.312;2024-03-06T00:16:31;29.08;;;17.73;;
80694;SDS011;70059;42.702;23.312;2024-03-06T00:18:57;30.90;;;17.38;;
80694;SDS011;70059;42.702;23.312;2024-03-06T00:21:22;32.40;;;18.52;;
80694;SDS011;70059;42.702;23.312;2024-03-06T00:23:48;30.55;;;17.63;;
80694;SDS011;70059;42.702;23.312;2024-03-06T00:26:14;29.73;;;16.80;;
80694;SDS011;70059;42.702;23.312;2024-03-06T00:28:39;27.52;;;16.35;;
80694;SDS011;70059;42.702;23.312;2024-03-06T00:31:05;31.08;;;17.65;;
80694;SDS011;70059;42.702;23.312;2024-03-06T00:33:31;30.02;;;17.88;;
80694;SDS011;70059;42.702;23.312;2024-03-06T00:35:58;30.48;;;18.15;;
80694;SDS011;70059;42.702;23.312;2024-03-06T00:38:23;29.20;;;17.52;;
80694;SDS011;70059;42.702;23.312;2024-03-06T00:40:49;29.17;;;17.50;;
80694;SDS011;70059;42.702;23.312;2024-03-06T00:43:14;29.73;;;18.08;;
80694;SDS011;70059;42.702;23.312;2024-03-06T00:45:42;28.25;;;16.65;;
80694;SDS011;70059;42.702;23.312;2024-03-06T00:48:07;30.63;;;18.50;;
80694;SDS011;70059;42.702;23.312;2024-03-06T00:50:33;30.85;;;19.00;;
80694;SDS011;70059;42.702;23.312;2024-03-06T00:53:01;37.90;;;19.33;;
80694;SDS011;70059;42.702;23.312;2024-03-06T00:55:26;31.45;;;19.05;;
80694;SDS011;70059;42.702;23.312;2024-03-06T00:57:52;33.40;;;20.33;;
80694;SDS011;70059;42.702;23.312;2024-03-06T01:00:19;32.47;;;19.45;;
80694;SDS011;70059;42.702;23.312;2024-03-06T01:02:45;36.88;;;20.27;;
80694;SDS011;70059;42.702;23.312;2024-03-06T01:05:10;28.38;;;18.13;;
80694;SDS011;70059;42.702;23.312;2024-03-06T01:07:39;32.33;;;20.23;;
80694;SDS011;70059;42.702;23.312;2024-03-06T01:10:06;38.10;;;20.80;;
80694;SDS011;70059;42.702;23.312;2024-03-06T01:12:32;33.40;;;19.98;;
80694;SDS011;70059;42.702;23.312;2024-03-06T01:14:58;34.78;;;20.50;;
80694;SDS011;70059;42.702;23.312;2024-03-06T01:17:24;34.97;;;19.73;;
80694;SDS011;70059;42.702;23.312;2024-03-06T01:19:50;31.92;;;18.88;;
80694;SDS011;70059;42.702;23.312;2024-03-06T01:22:16;31.48;;;18.02;;
80694;SDS011;70059;42.702;23.312;2024-03-06T01:24:41;29.17;;;17.15;;
80694;SDS011;70059;42.702;23.312;2024-03-06T01:27:07;31.45;;;18.52;;
80694;SDS011;70059;42.702;23.312;2024-03-06T01:29:33;34.10;;;19.65;;
80694;SDS011;70059;42.702;23.312;2024-03-06T01:31:59;34.38;;;18.05;;
80694;SDS011;70059;42.702;23.312;2024-03-06T01:34:25;38.72;;;19.15;;
80694;SDS011;70059;42.702;23.312;2024-03-06T01:36:51;33.35;;;18.60;;
80694;SDS011;70059;42.702;23.312;2024-03-06T01:39:17;30.73;;;18.42;;
80694;SDS011;70059;42.702;23.312;2024-03-06T01:41:49;33.88;;;18.70;;
80694;SDS011;70059;42.702;23.312;2024-03-06T01:44:16;33.50;;;18.85;;
80694;SDS011;70059;42.702;23.312;2024-03-06T01:46:43;35.60;;;18.77;;
80694;SDS011;70059;42.702;23.312;2024-03-06T01:49:10;31.40;;;18.55;;
80694;SDS011;70059;42.702;23.312;2024-03-06T01:51:40;29.97;;;18.77;;
80694;SDS011;70059;42.702;23.312;2024-03-06T01:54:07;27.52;;;18.15;;
80694;SDS011;70059;42.702;23.312;2024-03-06T01:56:35;32.70;;;19.50;;
80694;SDS011;70059;42.702;23.312;2024-03-06T01:59:03;45.65;;;19.55;;
80694;SDS011;70059;42.702;23.312;2024-03-06T02:01:31;33.20;;;18.15;;
80694;SDS011;70059;42.702;23.312;2024-03-06T02:03:58;35.65;;;19.65;;
80694;SDS011;70059;42.702;23.312;2024-03-06T02:06:24;34.05;;;18.42;;
80694;SDS011;70059;42.702;23.312;2024-03-06T02:08:51;31.25;;;17.83;;
80694;SDS011;70059;42.702;23.312;2024-03-06T02:11:16;35.00;;;19.05;;
80694;SDS011;70059;42.702;23.312;2024-03-06T02:13:42;32.75;;;17.83;;
80694;SDS011;70059;42.702;23.312;2024-03-06T02:16:09;32.00;;;18.30;;
80694;SDS011;70059;42.702;23.312;2024-03-06T02:18:35;34.03;;;18.63;;
80694;SDS011;70059;42.702;23.312;2024-03-06T02:21:02;32.72;;;18.10;;
80694;SDS011;70059;42.702;23.312;2024-03-06T02:23:29;29.15;;;18.17;;
80694;SDS011;70059;42.702;23.312;2024-03-06T02:25:55;36.22;;;19.38;;
80694;SDS011;70059;42.702;23.312;2024-03-06T02:28:21;33.45;;;17.85;;
80694;SDS011;70059;42.702;23.312;2024-03-06T02:30:50;40.03;;;20.15;;
80694;SDS011;70059;42.702;23.312;2024-03-06T02:33:16;33.65;;;19.42;;
80694;SDS011;70059;42.702;23.312;2024-03-06T02:35:43;35.90;;;19.17;;
80694;SDS011;70059;42.702;23.312;2024-03-06T02:38:10;35.45;;;20.20;;
80694;SDS011;70059;42.702;23.312;2024-03-06T02:40:35;34.00;;;18.90;;
80694;SDS011;70059;42.702;23.312;2024-03-06T02:43:01;39.10;;;20.45;;
80694;SDS011;70059;42.702;23.312;2024-03-06T02:45:27;38.53;;;20.42;;
80694;SDS011;70059;42.702;23.312;2024-03-06T02:47:53;37.97;;;19.70;;
80694;SDS011;70059;42.702;23.312;2024-03-06T02:50:19;37.10;;;19.25;;
80694;SDS011;70059;42.702;23.312;2024-03-06T02:52:46;33.92;;;19.60;;
80694;SDS011;70059;42.702;23.312;2024-03-06T02:55:11;35.30;;;19.75;;
80694;SDS011;70059;42.702;23.312;2024-03-06T02:57:37;32.95;;;18.85;;
80694;SDS011;70059;42.702;23.312;2024-03-06T03:00:03;32.85;;;19.20;;
80694;SDS011;70059;42.702;23.312;2024-03-06T03:02:29;34.45;;;19.08;;
80694;SDS011;70059;42.702;23.312;2024-03-06T03:04:56;36.97;;;19.92;;
80694;SDS011;70059;42.702;23.312;2024-03-06T03:07:22;33.38;;;18.60;;
80694;SDS011;70059;42.702;23.312;2024-03-06T03:09:48;32.95;;;17.75;;
80694;SDS011;70059;42.702;23.312;2024-03-06T03:12:14;35.03;;;18.88;;
80694;SDS011;70059;42.702;23.312;2024-03-06T03:14:40;34.92;;;18.67;;
80694;SDS011;70059;42.702;23.312;2024-03-06T03:17:06;33.28;;;16.65;;
80694;SDS011;70059;42.702;23.312;2024-03-06T03:19:32;31.50;;;18.83;;
80694;SDS011;70059;42.702;23.312;2024-03-06T03:21:58;33.97;;;18.58;;
80694;SDS011;70059;42.702;23.312;2024-03-06T03:24:24;36.95;;;19.75;;
80694;SDS011;70059;42.702;23.312;2024-03-06T03:26:51;37.00;;;19.05;;
80694;SDS011;70059;42.702;23.312;2024-03-06T03:29:17;34.30;;;18.30;;
80694;SDS011;70059;42.702;23.312;2024-03-06T03:31:43;35.20;;;18.52;;
80694;SDS011;70059;42.702;23.312;2024-03-06T03:34:09;36.22;;;19.75;;
80694;SDS011;70059;42.702;23.312;2024-03-06T03:36:39;34.80;;;18.60;;
80694;SDS011;70059;42.702;23.312;2024-03-06T03:39:11;37.38;;;18.88;;
80694;SDS011;70059;42.702;23.312;2024-03-06T03:41:49;36.85;;;18.42;;
80694;SDS011;70059;42.702;23.312;2024-03-06T03:44:15;35.60;;;19.58;;
80694;SDS011;70059;42.702;23.312;2024-03-06T03:46:42;38.10;;;18.92;;
80694;SDS011;70059;42.702;23.312;2024-03-06T03:49:08;35.10;;;19.48;;
80694;SDS011;70059;42.702;23.312;2024-03-06T03:51:35;35.83;;;18.10;;
80694;SDS011;70059;42.702;23.312;2024-03-06T03:54:01;37.13;;;20.02;;
80694;SDS011;70059;42.702;23.312;2024-03-06T03:56:28;34.38;;;18.63;;
80694;SDS011;70059;42.702;23.312;2024-03-06T03:58:54;38.28;;;19.65;;
80694;SDS011;70059;42.702;23.312;2024-03-06T04:01:20;38.47;;;19.27;;
80694;SDS011;70059;42.702;23.312;2024-03-06T04:03:46;32.47;;;17.70;;
80694;SDS011;70059;42.702;23.312;2024-03-06T04:06:13;36.28;;;19.83;;
80694;SDS011;70059;42.702;23.312;2024-03-06T04:08:39;38.92;;;18.85;;
80694;SDS011;70059;42.702;23.312;2024-03-06T04:11:05;36.65;;;19.85;;
80694;SDS011;70059;42.702;23.312;2024-03-06T04:13:34;34.90;;;18.83;;
80694;SDS011;70059;42.702;23.312;2024-03-06T04:16:01;40.35;;;21.20;;
80694;SDS011;70059;42.702;23.312;2024-03-06T04:18:28;40.53;;;21.20;;
80694;SDS011;70059;42.702;23.312;2024-03-06T04:20:54;34.92;;;18.77;;
80694;SDS011;70059;42.702;23.312;2024-03-06T04:23:20;33.30;;;19.27;;
80694;SDS011;70059;42.702;23.312;2024-03-06T04:25:45;37.10;;;19.58;;
80694;SDS011;70059;42.702;23.312;2024-03-06T04:28:11;37.90;;;19.23;;
80694;SDS011;70059;42.702;23.312;2024-03-06T04:30:37;37.70;;;19.55;;
80694;SDS011;70059;42.702;23.312;2024-03-06T04:33:03;34.65;;;18.52;;
80694;SDS011;70059;42.702;23.312;2024-03-06T04:35:29;41.30;;;20.60;;
80694;SDS011;70059;42.702;23.312;2024-03-06T04:37:55;40.28;;;20.67;;
80694;SDS011;70059;42.702;23.312;2024-03-06T04:40:20;36.90;;;19.35;;
80694;SDS011;70059;42.702;23.312;2024-03-06T04:42:47;39.80;;;19.85;;
80694;SDS011;70059;42.702;23.312;2024-03-06T04:45:16;43.08;;;20.58;;
80694;SDS011;70059;42.702;23.312;2024-03-06T04:47:42;39.63;;;20.90;;
80694;SDS011;70059;42.702;23.312;2024-03-06T04:50:12;40.38;;;21.00;;
80694;SDS011;70059;42.702;23.312;2024-03-06T04:52:39;41.33;;;21.00;;
80694;SDS011;70059;42.702;23.312;2024-03-06T04:55:06;43.17;;;21.45;;
80694;SDS011;70059;42.702;23.312;2024-03-06T04:57:34;39.85;;;19.77;;
80694;SDS011;70059;42.702;23.312;2024-03-06T04:59:59;42.45;;;20.60;;
80694;SDS011;70059;42.702;23.312;2024-03-06T05:02:29;39.17;;;20.42;;
80694;SDS011;70059;42.702;23.312;2024-03-06T05:04:55;37.95;;;20.40;;
80694;SDS011;70059;42.702;23.312;2024-03-06T05:07:21;40.65;;;20.77;;
80694;SDS011;70059;42.702;23.312;2024-03-06T05:09:46;43.78;;;21.30;;
80694;SDS011;70059;42.702;23.312;2024-03-06T05:12:12;40.38;;;19.73;;
80694;SDS011;70059;42.702;23.312;2024-03-06T05:14:38;36.95;;;19.55;;
80694;SDS011;70059;42.702;23.312;2024-03-06T05:17:03;39.55;;;21.10;;
80694;SDS011;70059;42.702;23.312;2024-03-06T05:19:29;42.33;;;21.48;;
80694;SDS011;70059;42.702;23.312;2024-03-06T05:21:57;41.13;;;20.50;;
80694;SDS011;70059;42.702;23.312;2024-03-06T05:24:24;36.88;;;20.13;;
80694;SDS011;70059;42.702;23.312;2024-03-06T05:26:49;34.90;;;18.63;;
80694;SDS011;70059;42.702;23.312;2024-03-06T05:29:16;31.95;;;16.58;;
80694;SDS011;70059;42.702;23.312;2024-03-06T05:31:41;34.45;;;16.88;;
80694;SDS011;70059;42.702;23.312;2024-03-06T05:34:07;36.45;;;18.05;;
80694;SDS011;70059;42.702;23.312;2024-03-06T05:36:33;32.92;;;17.48;;
80694;SDS011;70059;42.702;23.312;2024-03-06T05:38:59;35.47;;;17.83;;
80694;SDS011;70059;42.702;23.312;2024-03-06T05:41:24;36.78;;;18.08;;
80694;SDS011;70059;42.702;23.312;2024-03-06T05:43:50;33.47;;;18.73;;
80694;SDS011;70059;42.702;23.312;2024-03-06T05:46:16;30.63;;;16.20;;
80694;SDS011;70059;42.702;23.312;2024-03-06T05:48:44;35.10;;;16.52;;
80694;SDS011;70059;42.702;23.312;2024-03-06T05:51:10;32.30;;;17.08;;
80694;SDS011;70059;42.702;23.312;2024-03-06T05:53:38;28.98;;;17.00;;
80694;SDS011;70059;42.702;23.312;2024-03-06T05:56:07;62.72;;;42.53;;
80694;SDS011;70059;42.702;23.312;2024-03-06T05:58:33;34.83;;;19.90;;
80694;SDS011;70059;42.702;23.312;2024-03-06T06:00:59;37.38;;;18.27;;
80694;SDS011;70059;42.702;23.312;2024-03-06T06:03:29;36.65;;;18.90;;
80694;SDS011;70059;42.702;23.312;2024-03-06T06:05:55;34.10;;;19.05;;
80694;SDS011;70059;42.702;23.312;2024-03-06T06:08:22;38.92;;;19.98;;
80694;SDS011;70059;42.702;23.312;2024-03-06T06:10:49;34.45;;;18.63;;
80694;SDS011;70059;42.702;23.312;2024-03-06T06:13:16;38.92;;;18.67;;
80694;SDS011;70059;42.702;23.312;2024-03-06T06:18:27;35.10;;;18.52;;
80694;SDS011;70059;42.702;23.312;2024-03-06T06:20:53;36.17;;;19.02;;
80694;SDS011;70059;42.702;23.312;2024-03-06T06:23:19;41.85;;;19.90;;
80694;SDS011;70059;42.702;23.312;2024-03-06T06:25:46;38.03;;;19.25;;
80694;SDS011;70059;42.702;23.312;2024-03-06T06:28:11;31.83;;;18.63;;
80694;SDS011;70059;42.702;23.312;2024-03-06T06:30:37;34.47;;;19.20;;
80694;SDS011;70059;42.702;23.312;2024-03-06T06:33:06;38.28;;;19.08;;
80694;SDS011;70059;42.702;23.312;2024-03-06T06:35:33;35.45;;;18.83;;
80694;SDS011;70059;42.702;23.312;2024-03-06T06:37:59;36.22;;;18.52;;
80694;SDS011;70059;42.702;23.312;2024-03-06T06:40:26;38.17;;;20.23;;
80694;SDS011;70059;42.702;23.312;2024-03-06T06:42:53;39.25;;;20.70;;
80694;SDS011;70059;42.702;23.312;2024-03-06T06:45:19;32.33;;;18.70;;
80694;SDS011;70059;42.702;23.312;2024-03-06T06:47:47;33.97;;;20.27;;
80694;SDS011;70059;42.702;23.312;2024-03-06T06:50:13;33.30;;;19.42;;
80694;SDS011;70059;42.702;23.312;2024-03-06T06:52:48;33.95;;;20.52;;
80694;SDS011;70059;42.702;23.312;2024-03-06T06:55:14;42.90;;;23.77;;
80694;SDS011;70059;42.702;23.312;2024-03-06T06:57:40;45.10;;;24.10;;
80694;SDS011;70059;42.702;23.312;2024-03-06T07:00:09;47.33;;;23.55;;
80694;SDS011;70059;42.702;23.312;2024-03-06T07:02:38;42.55;;;23.85;;
80694;SDS011;70059;42.702;23.312;2024-03-06T07:05:06;43.70;;;24.17;;
80694;SDS011;70059;42.702;23.312;2024-03-06T07:07:35;41.38;;;24.80;;
80694;SDS011;70059;42.702;23.312;2024-03-06T07:10:02;41.67;;;23.33;;
80694;SDS011;70059;42.702;23.312;2024-03-06T07:16:02;37.25;;;22.33;;
80694;SDS011;70059;42.702;23.312;2024-03-06T07:18:29;40.08;;;23.75;;
80694;SDS011;70059;42.702;23.312;2024-03-06T07:21:01;47.83;;;26.30;;
80694;SDS011;70059;42.702;23.312;2024-03-06T07:23:30;39.92;;;23.58;;
80694;SDS011;70059;42.702;23.312;2024-03-06T07:25:56;33.80;;;21.75;;
80694;SDS011;70059;42.702;23.312;2024-03-06T07:28:24;40.38;;;24.23;;
80694;SDS011;70059;42.702;23.312;2024-03-06T07:33:42;30.30;;;19.45;;
80694;SDS011;70059;42.702;23.312;2024-03-06T07:36:08;31.27;;;18.17;;
80694;SDS011;70059;42.702;23.312;2024-03-06T07:38:52;30.88;;;18.55;;
80694;SDS011;70059;42.702;23.312;2024-03-06T07:41:18;33.97;;;19.58;;
80694;SDS011;70059;42.702;23.312;2024-03-06T07:43:45;27.42;;;18.35;;
80694;SDS011;70059;42.702;23.312;2024-03-06T07:46:11;29.65;;;18.40;;
80694;SDS011;70059;42.702;23.312;2024-03-06T07:48:38;30.27;;;20.02;;
80694;SDS011;70059;42.702;23.312;2024-03-06T07:51:21;37.05;;;20.17;;
80694;SDS011;70059;42.702;23.312;2024-03-06T07:53:53;36.38;;;19.80;;
80694;SDS011;70059;42.702;23.312;2024-03-06T07:56:23;32.97;;;19.83;;
80694;SDS011;70059;42.702;23.312;2024-03-06T07:58:52;37.20;;;22.90;;
80694;SDS011;70059;42.702;23.312;2024-03-06T08:01:20;33.08;;;20.05;;
80694;SDS011;70059;42.702;23.312;2024-03-06T08:03:49;33.05;;;21.40;;
80694;SDS011;70059;42.702;23.312;2024-03-06T08:06:15;36.63;;;21.00;;
80694;SDS011;70059;42.702;23.312;2024-03-06T08:08:47;34.65;;;21.30;;
80694;SDS011;70059;42.702;23.312;2024-03-06T08:11:17;33.58;;;20.50;;
80694;SDS011;70059;42.702;23.312;2024-03-06T08:14:13;35.00;;;21.63;;
80694;SDS011;70059;42.702;23.312;2024-03-06T08:16:53;33.42;;;21.42;;
80694;SDS011;70059;42.702;23.312;2024-03-06T08:19:19;33.45;;;21.15;;
80694;SDS011;70059;42.702;23.312;2024-03-06T08:21:45;36.03;;;22.45;;
80694;SDS011;70059;42.702;23.312;2024-03-06T08:24:13;37.67;;;22.40;;
80694;SDS011;70059;42.702;23.312;2024-03-06T08:26:42;37.05;;;21.83;;
80694;SDS011;70059;42.702;23.312;2024-03-06T08:29:08;32.80;;;22.52;;
80694;SDS011;70059;42.702;23.312;2024-03-06T08:31:34;29.25;;;21.55;;
80694;SDS011;70059;42.702;23.312;2024-03-06T08:34:02;31.52;;;21.70;;
80694;SDS011;70059;42.702;23.312;2024-03-06T08:36:30;31.23;;;22.50;;
80694;SDS011;70059;42.702;23.312;2024-03-06T08:38:56;32.22;;;23.30;;
80694;SDS011;70059;42.702;23.312;2024-03-06T08:41:21;35.17;;;23.05;;
80694;SDS011;70059;42.702;23.312;2024-03-06T08:43:47;31.73;;;22.25;;
80694;SDS011;70059;42.702;23.312;2024-03-06T08:46:13;29.98;;;22.48;;
80694;SDS011;70059;42.702;23.312;2024-03-06T08:48:39;28.75;;;22.77;;
80694;SDS011;70059;42.702;23.312;2024-03-06T08:51:04;25.83;;;20.75;;
80694;SDS011;70059;42.702;23.312;2024-03-06T08:56:02;33.38;;;22.83;;
80694;SDS011;70059;42.702;23.312;2024-03-06T08:58:28;28.60;;;21.98;;
80694;SDS011;70059;42.702;23.312;2024-03-06T09:00:59;31.27;;;23.25;;
80694;SDS011;70059;42.702;23.312;2024-03-06T09:03:25;32.55;;;22.80;;
80694;SDS011;70059;42.702;23.312;2024-03-06T09:05:51;32.05;;;23.52;;
80694;SDS011;70059;42.702;23.312;2024-03-06T09:08:17;31.80;;;23.63;;
80694;SDS011;70059;42.702;23.312;2024-03-06T09:10:51;28.48;;;22.38;;
80694;SDS011;70059;42.702;23.312;2024-03-06T09:13:22;25.35;;;20.02;;
80694;SDS011;70059;42.702;23.312;2024-03-06T09:15:47;27.15;;;20.83;;
80694;SDS011;70059;42.702;23.312;2024-03-06T09:18:13;28.08;;;20.80;;
80694;SDS011;70059;42.702;23.312;2024-03-06T09:20:42;18.17;;;16.35;;
80694;SDS011;70059;42.702;23.312;2024-03-06T09:23:27;23.60;;;19.27;;
80694;SDS011;70059;42.702;23.312;2024-03-06T09:25:55;27.15;;;20.42;;
80694;SDS011;70059;42.702;23.312;2024-03-06T09:28:23;26.45;;;20.65;;
80694;SDS011;70059;42.702;23.312;2024-03-06T09:30:50;24.23;;;21.30;;
80694;SDS011;70059;42.702;23.312;2024-03-06T09:33:16;23.38;;;20.95;;
80694;SDS011;70059;42.702;23.312;2024-03-06T09:35:42;27.67;;;20.30;;
80694;SDS011;70059;42.702;23.312;2024-03-06T09:38:18;22.35;;;18.80;;
80694;SDS011;70059;42.702;23.312;2024-03-06T09:40:50;20.63;;;18.52;;
80694;SDS011;70059;42.702;23.312;2024-03-06T09:43:20;22.58;;;19.17;;
80694;SDS011;70059;42.702;23.312;2024-03-06T09:45:46;24.15;;;18.90;;
80694;SDS011;70059;42.702;23.312;2024-03-06T09:48:15;22.40;;;19.77;;
80694;SDS011;70059;42.702;23.312;2024-03-06T09:53:12;19.08;;;16.38;;
80694;SDS011;70059;42.702;23.312;2024-03-06T09:55:41;21.08;;;18.48;;
80694;SDS011;70059;42.702;23.312;2024-03-06T09:58:08;23.00;;;18.83;;
80694;SDS011;70059;42.702;23.312;2024-03-06T10:00:37;19.58;;;17.52;;
80694;SDS011;70059;42.702;23.312;2024-03-06T10:03:03;22.60;;;17.63;;
80694;SDS011;70059;42.702;23.312;2024-03-06T10:05:33;16.73;;;15.02;;
80694;SDS011;70059;42.702;23.312;2024-03-06T10:08:08;18.38;;;15.82;;
80694;SDS011;70059;42.702;23.312;2024-03-06T10:10:41;21.27;;;18.17;;
80694;SDS011;70059;42.702;23.312;2024-03-06T10:13:18;17.30;;;15.48;;
80694;SDS011;70059;42.702;23.312;2024-03-06T10:16:00;18.92;;;15.80;;
80694;SDS011;70059;42.702;23.312;2024-03-06T10:18:33;17.50;;;15.68;;
80694;SDS011;70059;42.702;23.312;2024-03-06T10:21:08;19.35;;;15.90;;
80694;SDS011;70059;42.702;23.312;2024-03-06T10:23:34;20.23;;;16.48;;
80694;SDS011;70059;42.702;23.312;2024-03-06T10:29:24;16.35;;;14.02;;
80694;SDS011;70059;42.702;23.312;2024-03-06T10:32:21;16.02;;;14.40;;
80694;SDS011;70059;42.702;23.312;2024-03-06T10:34:53;16.98;;;15.27;;
80694;SDS011;70059;42.702;23.312;2024-03-06T10:37:24;16.63;;;15.03;;
80694;SDS011;70059;42.702;23.312;2024-03-06T10:39:53;16.25;;;14.70;;
80694;SDS011;70059;42.702;23.312;2024-03-06T10:42:31;16.33;;;14.60;;
80694;SDS011;70059;42.702;23.312;2024-03-06T10:45:00;17.25;;;14.30;;
80694;SDS011;70059;42.702;23.312;2024-03-06T10:47:28;15.55;;;14.05;;
80694;SDS011;70059;42.702;23.312;2024-03-06T10:49:54;15.50;;;14.20;;
80694;SDS011;70059;42.702;23.312;2024-03-06T10:52:24;17.05;;;15.23;;
80694;SDS011;70059;42.702;23.312;2024-03-06T10:54:52;15.82;;;14.27;;
80694;SDS011;70059;42.702;23.312;2024-03-06T10:57:19;14.68;;;13.38;;
80694;SDS011;70059;42.702;23.312;2024-03-06T10:59:46;14.90;;;13.40;;
80694;SDS011;70059;42.702;23.312;2024-03-06T11:02:14;15.68;;;13.98;;
80694;SDS011;70059;42.702;23.312;2024-03-06T11:04:41;14.25;;;12.98;;
80694;SDS011;70059;42.702;23.312;2024-03-06T11:07:17;13.43;;;12.27;;
80694;SDS011;70059;42.702;23.312;2024-03-06T11:09:43;15.55;;;14.07;;
80694;SDS011;70059;42.702;23.312;2024-03-06T11:12:09;14.00;;;12.60;;
80694;SDS011;70059;42.702;23.312;2024-03-06T11:14:36;16.05;;;14.45;;
80694;SDS011;70059;42.702;23.312;2024-03-06T11:17:10;16.33;;;14.13;;
80694;SDS011;70059;42.702;23.312;2024-03-06T11:28:21;14.43;;;12.98;;
80694;SDS011;70059;42.702;23.312;2024-03-06T11:33:34;13.55;;;12.15;;
80694;SDS011;70059;42.702;23.312;2024-03-06T11:36:14;13.20;;;11.95;;
80694;SDS011;70059;42.702;23.312;2024-03-06T11:38:52;13.77;;;12.48;;
80694;SDS011;70059;42.702;23.312;2024-03-06T11:41:26;16.58;;;13.13;;
80694;SDS011;70059;42.702;23.312;2024-03-06T11:43:56;15.57;;;12.73;;
80694;SDS011;70059;42.702;23.312;2024-03-06T11:49:22;15.00;;;13.40;;
80694;SDS011;70059;42.702;23.312;2024-03-06T11:51:53;15.10;;;13.50;;
80694;SDS011;70059;42.702;23.312;2024-03-06T11:59:23;13.68;;;12.25;;
80694;SDS011;70059;42.702;23.312;2024-03-06T12:01:50;13.57;;;12.18;;
80694;SDS011;70059;42.702;23.312;2024-03-06T12:04:32;14.70;;;12.82;;
80694;SDS011;70059;42.702;23.312;2024-03-06T12:06:59;17.48;;;13.18;;
80694;SDS011;70059;42.702;23.312;2024-03-06T12:09:38;14.75;;;13.23;;
80694;SDS011;70059;42.702;23.312;2024-03-06T12:12:05;19.00;;;13.63;;
80694;SDS011;70059;42.702;23.312;2024-03-06T12:14:35;19.27;;;14.27;;
80694;SDS011;70059;42.702;23.312;2024-03-06T12:17:01;16.88;;;15.00;;
80694;SDS011;70059;42.702;23.312;2024-03-06T12:19:32;17.80;;;15.10;;
80694;SDS011;70059;42.702;23.312;2024-03-06T12:22:02;15.18;;;13.63;;
80694;SDS011;70059;42.702;23.312;2024-03-06T12:24:33;13.88;;;12.57;;
80694;SDS011;70059;42.702;23.312;2024-03-06T12:27:03;13.77;;;12.32;;
80694;SDS011;70059;42.702;23.312;2024-03-06T12:29:31;13.93;;;12.43;;
80694;SDS011;70059;42.702;23.312;2024-03-06T12:31:57;13.63;;;12.23;;
80694;SDS011;70059;42.702;23.312;2024-03-06T12:34:26;18.02;;;12.77;;
80694;SDS011;70059;42.702;23.312;2024-03-06T12:36:52;18.38;;;13.63;;
80694;SDS011;70059;42.702;23.312;2024-03-06T12:39:18;16.65;;;11.52;;
80694;SDS011;70059;42.702;23.312;2024-03-06T12:41:48;13.57;;;10.88;;
80694;SDS011;70059;42.702;23.312;2024-03-06T12:44:15;19.02;;;11.73;;
80694;SDS011;70059;42.702;23.312;2024-03-06T12:46:41;19.17;;;11.48;;
80694;SDS011;70059;42.702;23.312;2024-03-06T12:49:07;16.02;;;11.20;;
80694;SDS011;70059;42.702;23.312;2024-03-06T12:51:33;14.52;;;11.18;;
80694;SDS011;70059;42.702;23.312;2024-03-06T12:54:00;16.23;;;10.80;;
80694;SDS011;70059;42.702;23.312;2024-03-06T12:56:28;12.48;;;10.38;;
80694;SDS011;70059;42.702;23.312;2024-03-06T12:58:56;13.65;;;10.48;;
80694;SDS011;70059;42.702;23.312;2024-03-06T13:01:22;12.43;;;9.25;;
80694;SDS011;70059;42.702;23.312;2024-03-06T13:03:56;11.73;;;9.55;;
80694;SDS011;70059;42.702;23.312;2024-03-06T13:06:22;15.43;;;11.63;;
80694;SDS011;70059;42.702;23.312;2024-03-06T13:08:49;19.50;;;11.20;;
80694;SDS011;70059;42.702;23.312;2024-03-06T13:11:14;13.75;;;10.55;;
80694;SDS011;70059;42.702;23.312;2024-03-06T13:13:40;10.98;;;9.90;;
80694;SDS011;70059;42.702;23.312;2024-03-06T13:16:06;12.27;;;9.85;;
80694;SDS011;70059;42.702;23.312;2024-03-06T13:18:36;10.98;;;9.85;;
80694;SDS011;70059;42.702;23.312;2024-03-06T13:21:02;11.82;;;9.35;;
80694;SDS011;70059;42.702;23.312;2024-03-06T13:23:30;11.07;;;9.45;;
80694;SDS011;70059;42.702;23.312;2024-03-06T13:25:56;10.57;;;9.60;;
80694;SDS011;70059;42.702;23.312;2024-03-06T13:28:23;10.48;;;9.50;;
80694;SDS011;70059;42.702;23.312;2024-03-06T13:30:49;10.57;;;9.55;;
80694;SDS011;70059;42.702;23.312;2024-03-06T13:33:15;10.48;;;9.48;;
80694;SDS011;70059;42.702;23.312;2024-03-06T13:35:41;11.50;;;9.95;;
80694;SDS011;70059;42.702;23.312;2024-03-06T13:38:07;10.75;;;9.80;;
80694;SDS011;70059;42.702;23.312;2024-03-06T13:40:33;11.30;;;9.88;;
80694;SDS011;70059;42.702;23.312;2024-03-06T13:42:59;14.18;;;9.63;;
80694;SDS011;70059;42.702;23.312;2024-03-06T13:45:24;15.98;;;12.52;;
80694;SDS011;70059;42.702;23.312;2024-03-06T13:47:51;14.52;;;10.90;;
80694;SDS011;70059;42.702;23.312;2024-03-06T13:50:17;14.07;;;11.10;;
80694;SDS011;70059;42.702;23.312;2024-03-06T13:52:43;11.75;;;10.52;;
80694;SDS011;70059;42.702;23.312;2024-03-06T13:55:09;15.32;;;11.85;;
80694;SDS011;70059;42.702;23.312;2024-03-06T13:57:36;15.40;;;12.00;;
80694;SDS011;70059;42.702;23.312;2024-03-06T14:00:04;16.67;;;12.70;;
80694;SDS011;70059;42.702;23.312;2024-03-06T14:02:32;12.43;;;11.20;;
80694;SDS011;70059;42.702;23.312;2024-03-06T14:04:58;13.80;;;11.45;;
80694;SDS011;70059;42.702;23.312;2024-03-06T14:07:24;18.58;;;10.85;;
80694;SDS011;70059;42.702;23.312;2024-03-06T14:09:52;11.93;;;10.63;;
80694;SDS011;70059;42.702;23.312;2024-03-06T14:12:17;12.68;;;10.02;;
80694;SDS011;70059;42.702;23.312;2024-03-06T14:14:43;10.98;;;9.88;;
80694;SDS011;70059;42.702;23.312;2024-03-06T14:17:12;12.73;;;10.13;;
80694;SDS011;70059;42.702;23.312;2024-03-06T14:19:38;11.32;;;10.10;;
80694;SDS011;70059;42.702;23.312;2024-03-06T14:22:07;11.30;;;9.90;;
80694;SDS011;70059;42.702;23.312;2024-03-06T14:24:33;14.45;;;10.93;;
80694;SDS011;70059;42.702;23.312;2024-03-06T14:27:00;11.77;;;9.95;;
80694;SDS011;70059;42.702;23.312;2024-03-06T14:29:26;15.45;;;11.13;;
80694;SDS011;70059;42.702;23.312;2024-03-06T14:31:53;18.45;;;11.05;;
80694;SDS011;70059;42.702;23.312;2024-03-06T14:34:19;22.33;;;11.32;;
80694;SDS011;70059;42.702;23.312;2024-03-06T14:36:45;14.32;;;10.60;;
80694;SDS011;70059;42.702;23.312;2024-03-06T14:39:11;12.82;;;11.05;;
80694;SDS011;70059;42.702;23.312;2024-03-06T14:41:38;15.93;;;10.82;;
80694;SDS011;70059;42.702;23.312;2024-03-06T14:44:07;14.85;;;10.07;;
80694;SDS011;70059;42.702;23.312;2024-03-06T14:46:33;11.93;;;9.60;;
80694;SDS011;70059;42.702;23.312;2024-03-06T14:49:01;12.48;;;10.60;;